createdAt,value
2018-01-20T00:00:43.389Z,1004.2
2018-01-20T00:01:46.613Z,1004.2
2018-01-20T00:02:48.767Z,1004.3
2018-01-20T00:03:50.914Z,1004.2
2018-01-20T00:04:54.334Z,1004.1
2018-01-20T00:05:56.290Z,1004.2
2018-01-20T00:06:58.435Z,1004.1
2018-01-20T00:08:02.552Z,1004.1
2018-01-20T00:09:05.777Z,1004.1
2018-01-20T00:10:07.607Z,1004.2
2018-01-20T00:11:09.741Z,1004.1
2018-01-20T00:12:12.687Z,1004.2
2018-01-20T00:13:16.562Z,1004.1
2018-01-20T00:14:19.602Z,1004.1
2018-01-20T00:15:21.535Z,1004.1
2018-01-20T00:16:24.807Z,1004.1
2018-01-20T00:17:26.923Z,1004.1
2018-01-20T00:18:28.605Z,1004.1
2018-01-20T00:19:30.680Z,1004.1
2018-01-20T00:20:32.659Z,1004.1
2018-01-20T00:21:35.754Z,1004.1
2018-01-20T00:22:37.892Z,1004.0
2018-01-20T00:23:40.845Z,1004.1
2018-01-20T00:24:43.872Z,1004.1
2018-01-20T00:25:46.620Z,1004.1
2018-01-20T00:26:48.631Z,1004.1
2018-01-20T00:27:50.817Z,1004.1
2018-01-20T00:28:52.836Z,1004.1
2018-01-20T00:29:55.631Z,1004.1
2018-01-20T00:30:57.810Z,1004.2
2018-01-20T00:32:02.265Z,1004.1
2018-01-20T00:33:04.243Z,1004.2
2018-01-20T00:34:06.109Z,1004.1
2018-01-20T00:35:08.098Z,1004.1
2018-01-20T00:36:10.213Z,1004.1
2018-01-20T00:37:12.353Z,1004.1
2018-01-20T00:38:14.414Z,1004.1
2018-01-20T00:39:16.563Z,1004.1
2018-01-20T00:40:18.660Z,1004.0
2018-01-20T00:41:20.654Z,1004.1
2018-01-20T00:42:22.740Z,1004.0
2018-01-20T00:43:24.760Z,1004.0
2018-01-20T00:44:27.004Z,1004.0
2018-01-20T00:45:28.850Z,1004.0
2018-01-20T00:46:30.644Z,1004.0
2018-01-20T00:47:32.502Z,1004.0
2018-01-20T00:48:34.538Z,1004.0
2018-01-20T00:49:36.611Z,1003.9
2018-01-20T00:50:39.452Z,1004.0
2018-01-20T00:51:41.089Z,1003.9
2018-01-20T00:52:43.225Z,1004.0
2018-01-20T00:53:45.007Z,1004.0
2018-01-20T00:54:46.972Z,1004.0
2018-01-20T00:55:48.973Z,1004.0
2018-01-20T00:56:52.183Z,1004.0
2018-01-20T00:57:54.990Z,1004.1
2018-01-20T00:58:57.176Z,1004.1
2018-01-20T00:59:58.915Z,1004.1
2018-01-20T01:01:00.850Z,1004.0
2018-01-20T01:02:03.679Z,1004.0
2018-01-20T01:03:05.617Z,1004.0
2018-01-20T01:04:07.510Z,1004.0
2018-01-20T01:05:09.264Z,1004.0
2018-01-20T01:06:12.409Z,1004.0
2018-01-20T01:07:16.023Z,1004.1
2018-01-20T01:08:17.855Z,1004.1
2018-01-20T01:09:19.637Z,1004.1
2018-01-20T01:10:22.590Z,1004.0
2018-01-20T01:11:24.679Z,1004.1
2018-01-20T01:12:26.723Z,1004.0
2018-01-20T01:13:30.096Z,1004.1
2018-01-20T01:14:32.969Z,1004.1
2018-01-20T01:15:35.731Z,1004.1
2018-01-20T01:16:37.700Z,1004.1
2018-01-20T01:17:39.803Z,1004.1
2018-01-20T01:18:41.882Z,1004.1
2018-01-20T01:19:45.019Z,1004.1
2018-01-20T01:20:47.131Z,1004.2
2018-01-20T01:21:49.140Z,1004.2
2018-01-20T01:22:51.307Z,1004.1
2018-01-20T01:23:53.412Z,1004.1
2018-01-20T01:24:55.484Z,1004.2
2018-01-20T01:25:57.360Z,1004.1
2018-01-20T01:26:59.166Z,1004.1
2018-01-20T01:28:02.480Z,1004.1
2018-01-20T01:29:04.835Z,1004.2
2018-01-20T01:30:06.842Z,1004.1
2018-01-20T01:31:08.797Z,1004.2
2018-01-20T01:32:10.697Z,1004.2
2018-01-20T01:33:12.620Z,1004.1
2018-01-20T01:34:14.360Z,1004.1
2018-01-20T01:35:16.291Z,1004.2
2018-01-20T01:36:18.217Z,1004.1
2018-01-20T01:37:20.174Z,1004.1
2018-01-20T01:38:22.130Z,1004.1
2018-01-20T01:39:24.761Z,1004.2
2018-01-20T01:40:26.742Z,1004.2
2018-01-20T01:41:29.617Z,1004.2
2018-01-20T01:42:31.725Z,1004.1
2018-01-20T01:43:33.786Z,1004.1
2018-01-20T01:44:35.522Z,1004.1
2018-01-20T01:45:38.014Z,1004.1
2018-01-20T01:46:40.083Z,1004.1
2018-01-20T01:47:42.298Z,1004.2
2018-01-20T01:48:44.301Z,1004.2
2018-01-20T01:49:46.043Z,1004.2
2018-01-20T01:50:48.858Z,1004.1
2018-01-20T01:51:50.890Z,1004.2
2018-01-20T01:52:52.885Z,1004.2
2018-01-20T01:53:55.483Z,1004.1
2018-01-20T01:54:57.490Z,1004.2
2018-01-20T01:55:59.540Z,1004.2
2018-01-20T01:57:02.271Z,1004.2
2018-01-20T01:58:04.241Z,1004.2
2018-01-20T01:59:06.261Z,1004.2
2018-01-20T02:00:08.106Z,1004.1
2018-01-20T02:01:11.667Z,1004.2
2018-01-20T02:02:13.664Z,1004.1
2018-01-20T02:03:15.430Z,1004.1
2018-01-20T02:04:17.194Z,1004.1
2018-01-20T02:05:19.199Z,1004.1
2018-01-20T02:06:21.024Z,1004.1
2018-01-20T02:07:24.039Z,1004.1
2018-01-20T02:08:26.701Z,1004.1
2018-01-20T02:09:28.870Z,1004.1
2018-01-20T02:10:30.877Z,1004.1
2018-01-20T02:11:33.563Z,1004.1
2018-01-20T02:12:35.623Z,1004.1
2018-01-20T02:13:37.659Z,1004.1
2018-01-20T02:14:39.531Z,1004.0
2018-01-20T02:15:41.454Z,1004.1
2018-01-20T02:16:43.551Z,1004.1
2018-01-20T02:17:45.376Z,1004.1
2018-01-20T02:18:47.095Z,1004.1
2018-01-20T02:19:49.260Z,1004.1
2018-01-20T02:20:51.353Z,1004.1
2018-01-20T02:21:53.417Z,1004.1
2018-01-20T02:22:55.485Z,1004.1
2018-01-20T02:23:58.362Z,1004.1
2018-01-20T02:25:00.322Z,1004.0
2018-01-20T02:26:02.289Z,1004.1
2018-01-20T02:27:04.293Z,1004.0
2018-01-20T02:28:07.026Z,1004.0
2018-01-20T02:29:08.840Z,1004.0
2018-01-20T02:30:10.569Z,1003.9
2018-01-20T02:31:13.254Z,1004.0
2018-01-20T02:32:15.088Z,1004.0
2018-01-20T02:33:16.843Z,1003.9
2018-01-20T02:34:18.944Z,1004.0
2018-01-20T02:35:20.960Z,1004.0
2018-01-20T02:36:23.692Z,1004.0
2018-01-20T02:37:25.729Z,1004.0
2018-01-20T02:38:27.898Z,1004.0
2018-01-20T02:39:29.655Z,1003.9
2018-01-20T02:40:31.539Z,1003.9
2018-01-20T02:41:33.390Z,1003.8
2018-01-20T02:42:35.353Z,1003.9
2018-01-20T02:43:37.450Z,1003.9
2018-01-20T02:44:39.166Z,1003.8
2018-01-20T02:45:41.598Z,1003.8
2018-01-20T02:46:43.967Z,1003.8
2018-01-20T02:47:46.077Z,1003.8
2018-01-20T02:48:48.589Z,1003.8
2018-01-20T02:49:50.621Z,1003.9
2018-01-20T02:50:53.399Z,1003.8
2018-01-20T02:51:55.385Z,1003.8
2018-01-20T02:52:58.167Z,1003.8
2018-01-20T02:54:00.208Z,1003.8
2018-01-20T02:55:02.310Z,1003.7
2018-01-20T02:56:04.304Z,1003.7
2018-01-20T02:57:06.887Z,1003.8
2018-01-20T02:58:09.570Z,1003.7
2018-01-20T02:59:11.663Z,1003.7
2018-01-20T03:00:14.469Z,1003.7
2018-01-20T03:01:16.471Z,1003.7
2018-01-20T03:02:18.332Z,1003.7
2018-01-20T03:03:21.321Z,1003.7
2018-01-20T03:04:23.108Z,1003.7
2018-01-20T03:05:25.956Z,1003.7
2018-01-20T03:06:27.752Z,1003.6
2018-01-20T03:07:30.753Z,1003.7
2018-01-20T03:08:32.788Z,1003.6
2018-01-20T03:09:34.914Z,1003.6
2018-01-20T03:10:38.106Z,1003.6
2018-01-20T03:11:40.228Z,1003.6
2018-01-20T03:12:43.028Z,1003.6
2018-01-20T03:13:45.050Z,1003.6
2018-01-20T03:14:46.982Z,1003.6
2018-01-20T03:15:48.691Z,1003.5
2018-01-20T03:16:50.418Z,1003.6
2018-01-20T03:17:53.080Z,1003.5
2018-01-20T03:18:55.113Z,1003.5
2018-01-20T03:19:57.249Z,1003.5
2018-01-20T03:21:00.130Z,1003.5
2018-01-20T03:22:03.027Z,1003.4
2018-01-20T03:23:05.007Z,1003.4
2018-01-20T03:24:07.942Z,1003.4
2018-01-20T03:25:09.714Z,1003.4
2018-01-20T03:26:11.745Z,1003.3
2018-01-20T03:27:13.898Z,1003.3
2018-01-20T03:28:15.877Z,1003.3
2018-01-20T03:29:17.997Z,1003.3
2018-01-20T03:30:20.119Z,1003.3
2018-01-20T03:31:22.766Z,1003.3
2018-01-20T03:32:25.149Z,1003.3
2018-01-20T03:33:27.920Z,1003.3
2018-01-20T03:34:30.882Z,1003.2
2018-01-20T03:35:33.235Z,1003.2
2018-01-20T03:36:35.202Z,1003.2
2018-01-20T03:37:37.162Z,1003.2
2018-01-20T03:38:39.213Z,1003.2
2018-01-20T03:39:41.043Z,1003.2
2018-01-20T03:40:43.235Z,1003.2
2018-01-20T03:41:45.542Z,1003.2
2018-01-20T03:42:47.397Z,1003.2
2018-01-20T03:43:49.298Z,1003.1
2018-01-20T03:44:52.199Z,1003.1
2018-01-20T03:45:54.205Z,1003.1
2018-01-20T03:46:56.083Z,1003.1
2018-01-20T03:47:58.049Z,1003.1
2018-01-20T03:49:00.056Z,1003.1
2018-01-20T03:50:01.923Z,1003.1
2018-01-20T03:51:04.750Z,1003.1
2018-01-20T03:52:06.553Z,1003.0
2018-01-20T03:53:08.417Z,1003.0
2018-01-20T03:54:10.528Z,1003.0
2018-01-20T03:55:12.479Z,1003.0
2018-01-20T03:56:14.867Z,1003.1
2018-01-20T03:57:16.680Z,1003.0
2018-01-20T03:58:18.344Z,1003.0
2018-01-20T03:59:21.135Z,1003.0
2018-01-20T04:00:23.772Z,1003.0
2018-01-20T04:01:25.818Z,1003.1
2018-01-20T04:02:27.539Z,1003.0
2018-01-20T04:03:30.334Z,1003.0
2018-01-20T04:04:33.255Z,1003.0
2018-01-20T04:05:35.363Z,1003.0
2018-01-20T04:06:37.255Z,1003.0
2018-01-20T04:07:39.035Z,1003.0
2018-01-20T04:08:40.769Z,1003.0
2018-01-20T04:09:42.965Z,1003.0
2018-01-20T04:10:45.043Z,1002.9
2018-01-20T04:11:47.020Z,1002.9
2018-01-20T04:12:48.733Z,1002.9
2018-01-20T04:13:50.643Z,1002.9
2018-01-20T04:14:52.725Z,1002.9
2018-01-20T04:15:54.505Z,1002.9
2018-01-20T04:16:56.327Z,1002.9
2018-01-20T04:17:58.413Z,1002.9
2018-01-20T04:19:00.584Z,1002.8
2018-01-20T04:20:02.659Z,1002.8
2018-01-20T04:21:05.275Z,1002.8
2018-01-20T04:22:07.273Z,1002.8
2018-01-20T04:23:09.275Z,1002.9
2018-01-20T04:24:11.991Z,1002.8
2018-01-20T04:25:14.691Z,1002.8
2018-01-20T04:26:16.521Z,1002.8
2018-01-20T04:27:19.949Z,1002.8
2018-01-20T04:28:21.879Z,1002.8
2018-01-20T04:29:23.865Z,1002.8
2018-01-20T04:30:25.850Z,1002.8
2018-01-20T04:31:27.963Z,1002.8
2018-01-20T04:32:29.675Z,1002.7
2018-01-20T04:33:31.744Z,1002.8
2018-01-20T04:34:33.775Z,1002.8
2018-01-20T04:35:35.474Z,1002.8
2018-01-20T04:36:37.174Z,1002.8
2018-01-20T04:37:38.887Z,1002.8
2018-01-20T04:38:40.913Z,1002.8
2018-01-20T04:39:42.679Z,1002.8
2018-01-20T04:40:45.392Z,1002.8
2018-01-20T04:41:47.451Z,1002.7
2018-01-20T04:42:49.351Z,1002.7
2018-01-20T04:43:51.418Z,1002.7
2018-01-20T04:44:54.123Z,1002.8
2018-01-20T04:45:57.021Z,1002.8
2018-01-20T04:46:59.165Z,1002.7
2018-01-20T04:48:00.946Z,1002.8
2018-01-20T04:49:02.651Z,1002.7
2018-01-20T04:50:05.358Z,1002.7
2018-01-20T04:51:07.493Z,1002.7
2018-01-20T04:52:09.468Z,1002.7
2018-01-20T04:53:11.239Z,1002.7
2018-01-20T04:54:14.148Z,1002.7
2018-01-20T04:55:16.226Z,1002.7
2018-01-20T04:56:18.775Z,1002.7
2018-01-20T04:57:21.469Z,1002.7
2018-01-20T04:58:23.320Z,1002.7
2018-01-20T04:59:26.211Z,1002.7
2018-01-20T05:00:28.164Z,1002.7
2018-01-20T05:01:30.842Z,1002.7
2018-01-20T05:02:33.629Z,1002.7
2018-01-20T05:03:35.352Z,1002.7
2018-01-20T05:04:37.257Z,1002.8
2018-01-20T05:05:39.282Z,1002.7
2018-01-20T05:06:41.714Z,1002.7
2018-01-20T05:07:44.345Z,1002.7
2018-01-20T05:08:46.488Z,1002.6
2018-01-20T05:09:49.564Z,1002.6
2018-01-20T05:10:51.673Z,1002.6
2018-01-20T05:11:53.902Z,1002.6
2018-01-20T05:12:57.112Z,1002.6
2018-01-20T05:13:58.996Z,1002.6
2018-01-20T05:15:01.042Z,1002.6
2018-01-20T05:16:03.173Z,1002.5
2018-01-20T05:17:05.203Z,1002.5
2018-01-20T05:18:07.259Z,1002.5
2018-01-20T05:19:09.347Z,1002.5
2018-01-20T05:20:11.781Z,1002.5
2018-01-20T05:21:14.320Z,1002.5
2018-01-20T05:22:16.929Z,1002.4
2018-01-20T05:23:19.072Z,1002.4
2018-01-20T05:24:21.603Z,1002.5
2018-01-20T05:25:23.710Z,1002.5
2018-01-20T05:26:26.556Z,1002.4
2018-01-20T05:27:29.146Z,1002.4
2018-01-20T05:28:31.194Z,1002.4
2018-01-20T05:29:33.999Z,1002.4
2018-01-20T05:30:36.159Z,1002.4
2018-01-20T05:31:38.188Z,1002.4
2018-01-20T05:32:40.840Z,1002.3
2018-01-20T05:33:43.728Z,1002.3
2018-01-20T05:34:45.807Z,1002.3
2018-01-20T05:35:48.421Z,1002.3
2018-01-20T05:36:50.623Z,1002.3
2018-01-20T05:37:52.841Z,1002.3
2018-01-20T05:38:54.819Z,1002.3
2018-01-20T05:39:56.570Z,1002.3
2018-01-20T05:40:59.023Z,1002.3
2018-01-20T05:42:00.765Z,1002.3
2018-01-20T05:43:07.523Z,1002.3
2018-01-20T05:44:09.649Z,1002.3
2018-01-20T05:45:12.231Z,1002.2
2018-01-20T05:46:14.198Z,1002.3
2018-01-20T05:47:16.972Z,1002.3
2018-01-20T05:48:19.132Z,1002.3
2018-01-20T05:49:21.777Z,1002.3
2018-01-20T05:50:23.869Z,1002.3
2018-01-20T05:51:25.872Z,1002.3
2018-01-20T05:52:28.049Z,1002.3
2018-01-20T05:53:29.923Z,1002.3
2018-01-20T05:54:32.691Z,1002.3
2018-01-20T05:55:35.636Z,1002.3
2018-01-20T05:56:37.778Z,1002.3
2018-01-20T05:57:39.840Z,1002.3
2018-01-20T05:58:42.402Z,1002.3
2018-01-20T05:59:44.172Z,1002.4
2018-01-20T06:00:46.720Z,1002.3
2018-01-20T06:01:48.486Z,1002.2
2018-01-20T06:02:50.628Z,1002.3
2018-01-20T06:03:53.600Z,1002.3
2018-01-20T06:04:56.070Z,1002.3
2018-01-20T06:05:57.873Z,1002.3
2018-01-20T06:06:59.881Z,1002.3
2018-01-20T06:08:02.083Z,1002.3
2018-01-20T06:09:04.798Z,1002.2
2018-01-20T06:10:06.837Z,1002.2
2018-01-20T06:11:08.819Z,1002.3
2018-01-20T06:12:10.589Z,1002.2
2018-01-20T06:13:13.433Z,1002.2
2018-01-20T06:14:15.845Z,1002.2
2018-01-20T06:15:17.963Z,1002.2
2018-01-20T06:16:19.873Z,1002.2
2018-01-20T06:17:21.828Z,1002.2
2018-01-20T06:18:23.622Z,1002.2
2018-01-20T06:19:25.655Z,1002.1
2018-01-20T06:20:27.608Z,1002.2
2018-01-20T06:21:30.508Z,1002.2
2018-01-20T06:22:32.668Z,1002.2
2018-01-20T06:23:34.563Z,1002.2
2018-01-20T06:24:36.678Z,1002.2
2018-01-20T06:25:39.432Z,1002.2
2018-01-20T06:26:43.596Z,1002.2
2018-01-20T06:27:45.772Z,1002.2
2018-01-20T06:28:47.702Z,1002.2
2018-01-20T06:29:49.877Z,1002.2
2018-01-20T06:30:52.810Z,1002.2
2018-01-20T06:31:54.856Z,1002.2
2018-01-20T06:32:58.042Z,1002.2
2018-01-20T06:34:00.122Z,1002.1
2018-01-20T06:35:02.272Z,1002.1
2018-01-20T06:36:04.412Z,1002.1
2018-01-20T06:37:06.588Z,1002.1
2018-01-20T06:38:08.392Z,1002.1
2018-01-20T06:39:11.735Z,1002.1
2018-01-20T06:40:14.997Z,1002.1
2018-01-20T06:41:16.924Z,1002.1
2018-01-20T06:42:18.610Z,1002.1
2018-01-20T06:43:20.558Z,1002.0
2018-01-20T06:44:23.318Z,1002.0
2018-01-20T06:45:26.154Z,1002.0
2018-01-20T06:46:29.047Z,1002.0
2018-01-20T06:47:31.156Z,1002.0
2018-01-20T06:48:33.236Z,1002.0
2018-01-20T06:49:36.294Z,1002.0
2018-01-20T06:50:38.827Z,1002.0
2018-01-20T06:51:40.753Z,1002.0
2018-01-20T06:52:43.554Z,1001.9
2018-01-20T06:53:45.670Z,1001.9
2018-01-20T06:54:47.733Z,1001.8
2018-01-20T06:55:49.494Z,1001.9
2018-01-20T06:56:51.442Z,1001.8
2018-01-20T06:57:53.421Z,1001.8
2018-01-20T06:58:55.592Z,1001.8
2018-01-20T06:59:58.067Z,1001.8
2018-01-20T07:01:01.652Z,1001.9
2018-01-20T07:02:03.815Z,1001.9
2018-01-20T07:03:05.928Z,1001.9
2018-01-20T07:04:07.993Z,1001.9
2018-01-20T07:05:11.175Z,1001.8
2018-01-20T07:06:14.672Z,1001.8
2018-01-20T07:07:17.571Z,1001.8
2018-01-20T07:08:19.633Z,1001.8
2018-01-20T07:09:22.922Z,1001.8
2018-01-20T07:10:25.436Z,1001.8
2018-01-20T07:11:28.934Z,1001.8
2018-01-20T07:12:30.712Z,1001.8
2018-01-20T07:13:33.636Z,1001.8
2018-01-20T07:14:38.430Z,1001.8
2018-01-20T07:15:40.174Z,1001.8
2018-01-20T07:16:42.939Z,1001.8
2018-01-20T07:17:45.048Z,1001.8
2018-01-20T07:18:49.263Z,1001.8
2018-01-20T07:19:51.369Z,1001.8
2018-01-20T07:20:55.636Z,1001.8
2018-01-20T07:21:58.359Z,1001.8
2018-01-20T07:23:00.403Z,1001.8
2018-01-20T07:24:04.217Z,1001.8
2018-01-20T07:25:06.289Z,1001.8
2018-01-20T07:26:08.959Z,1001.8
2018-01-20T07:27:11.023Z,1001.8
2018-01-20T07:28:13.727Z,1001.8
2018-01-20T07:29:15.916Z,1001.8
2018-01-20T07:30:19.012Z,1001.8
2018-01-20T07:31:20.936Z,1001.8
2018-01-20T07:32:23.014Z,1001.7
2018-01-20T07:33:25.687Z,1001.8
2018-01-20T07:34:28.736Z,1001.8
2018-01-20T07:35:30.921Z,1001.8
2018-01-20T07:36:33.770Z,1001.8
2018-01-20T07:37:40.362Z,1001.9
2018-01-20T07:38:42.542Z,1001.8
2018-01-20T07:39:44.312Z,1001.8
2018-01-20T07:40:47.081Z,1001.8
2018-01-20T07:41:49.203Z,1001.9
2018-01-20T07:42:51.313Z,1001.9
2018-01-20T07:43:53.534Z,1001.8
2018-01-20T07:44:55.277Z,1001.9
2018-01-20T07:45:57.345Z,1001.8
2018-01-20T07:46:59.505Z,1001.7
2018-01-20T07:48:01.275Z,1001.7
2018-01-20T07:49:03.298Z,1001.7
2018-01-20T07:50:05.381Z,1001.7
2018-01-20T07:51:08.209Z,1001.7
2018-01-20T07:52:09.987Z,1001.7
2018-01-20T07:53:12.593Z,1001.7
2018-01-20T07:54:14.820Z,1001.7
2018-01-20T07:55:16.935Z,1001.7
2018-01-20T07:56:19.579Z,1001.6
2018-01-20T07:57:21.597Z,1001.6
2018-01-20T07:58:24.124Z,1001.6
2018-01-20T07:59:27.232Z,1001.6
2018-01-20T08:00:28.944Z,1001.6
2018-01-20T08:01:30.723Z,1001.6
2018-01-20T08:02:32.474Z,1001.6
2018-01-20T08:03:34.252Z,1001.5
2018-01-20T08:04:40.351Z,1001.5
2018-01-20T08:05:44.182Z,1001.5
2018-01-20T08:06:46.845Z,1001.5
2018-01-20T08:07:49.730Z,1001.5
2018-01-20T08:08:52.415Z,1001.5
2018-01-20T08:09:54.426Z,1001.5
2018-01-20T08:10:56.192Z,1001.5
2018-01-20T08:11:57.936Z,1001.5
2018-01-20T08:12:59.737Z,1001.5
2018-01-20T08:14:01.668Z,1001.5
2018-01-20T08:15:03.990Z,1001.5
2018-01-20T08:16:06.218Z,1001.5
2018-01-20T08:17:08.432Z,1001.5
2018-01-20T08:18:10.993Z,1001.5
2018-01-20T08:19:16.830Z,1001.5
2018-01-20T08:20:18.798Z,1001.5
2018-01-20T08:21:20.666Z,1001.4
2018-01-20T08:22:22.935Z,1001.4
2018-01-20T08:23:25.571Z,1001.4
2018-01-20T08:24:28.131Z,1001.4
2018-01-20T08:25:32.499Z,1001.4
2018-01-20T08:26:35.290Z,1001.4
2018-01-20T08:27:38.774Z,1001.4
2018-01-20T08:28:41.939Z,1001.3
2018-01-20T08:29:44.250Z,1001.3
2018-01-20T08:30:47.415Z,1001.3
2018-01-20T08:31:52.429Z,1001.3
2018-01-20T08:32:54.952Z,1001.3
2018-01-20T08:33:59.171Z,1001.2
2018-01-20T08:35:01.875Z,1001.3
2018-01-20T08:36:06.903Z,1001.3
2018-01-20T08:37:11.635Z,1001.3
2018-01-20T08:39:25.029Z,1001.3
2018-01-20T08:40:27.143Z,1001.3
2018-01-20T08:41:29.509Z,1001.3
2018-01-20T08:42:32.008Z,1001.3
2018-01-20T08:43:34.566Z,1001.3
2018-01-20T08:44:37.563Z,1001.3
2018-01-20T08:45:39.732Z,1001.3
2018-01-20T08:46:42.098Z,1001.3
2018-01-20T08:47:51.019Z,1001.2
2018-01-20T08:48:53.502Z,1001.3
2018-01-20T08:49:55.863Z,1001.2
2018-01-20T08:50:58.242Z,1001.2
2018-01-20T08:52:01.214Z,1001.2
2018-01-20T08:53:06.909Z,1001.2
2018-01-20T08:54:09.467Z,1001.2
2018-01-20T08:55:12.761Z,1001.2
2018-01-20T08:56:15.217Z,1001.1
2018-01-20T08:57:17.857Z,1001.2
2018-01-20T08:58:20.733Z,1001.1
2018-01-20T08:59:22.773Z,1001.1
2018-01-20T09:00:24.745Z,1001.1
2018-01-20T09:01:26.845Z,1001.0
2018-01-20T09:02:29.189Z,1001.1
2018-01-20T09:03:31.264Z,1001.1
2018-01-20T09:04:33.248Z,1001.1
2018-01-20T09:05:35.371Z,1001.1
2018-01-20T09:06:37.457Z,1001.1
2018-01-20T09:07:40.320Z,1001.1
2018-01-20T09:08:42.249Z,1001.0
2018-01-20T09:09:44.252Z,1001.0
2018-01-20T09:10:46.277Z,1001.0
2018-01-20T09:11:48.272Z,1001.1
2018-01-20T09:12:50.155Z,1001.0
2018-01-20T09:13:52.113Z,1001.0
2018-01-20T09:14:54.628Z,1001.0
2018-01-20T09:15:59.568Z,1001.0
2018-01-20T09:17:01.461Z,1001.0
2018-01-20T09:18:03.397Z,1001.0
2018-01-20T09:19:05.664Z,1001.0
2018-01-20T09:20:08.493Z,1000.9
2018-01-20T09:21:10.395Z,1001.0
2018-01-20T09:22:12.266Z,1001.0
2018-01-20T09:23:14.706Z,1000.9
2018-01-20T09:24:17.523Z,1000.9
2018-01-20T09:25:19.459Z,1000.8
2018-01-20T09:26:24.537Z,1000.9
2018-01-20T09:27:28.234Z,1000.8
2018-01-20T09:28:30.173Z,1000.8
2018-01-20T09:29:32.088Z,1000.7
2018-01-20T09:30:34.090Z,1000.7
2018-01-20T09:31:36.040Z,1000.8
2018-01-20T09:32:38.010Z,1000.8
2018-01-20T09:33:39.850Z,1000.8
2018-01-20T09:34:41.964Z,1000.7
2018-01-20T09:35:43.865Z,1000.7
2018-01-20T09:36:46.045Z,1000.7
2018-01-20T09:37:47.947Z,1000.7
2018-01-20T09:38:49.987Z,1000.8
2018-01-20T09:39:52.133Z,1000.8
2018-01-20T09:40:54.120Z,1000.8
2018-01-20T09:41:56.058Z,1000.8
2018-01-20T09:42:57.952Z,1000.8
2018-01-20T09:44:00.046Z,1000.8
2018-01-20T09:45:02.726Z,1000.8
2018-01-20T09:46:04.616Z,1000.8
2018-01-20T09:47:07.188Z,1000.7
2018-01-20T09:48:09.228Z,1000.7
2018-01-20T09:49:11.107Z,1000.6
2018-01-20T09:50:12.972Z,1000.6
2018-01-20T09:51:14.864Z,1000.7
2018-01-20T09:52:16.784Z,1000.7
2018-01-20T09:53:18.756Z,1000.6
2018-01-20T09:54:20.660Z,1000.6
2018-01-20T09:55:22.644Z,1000.7
2018-01-20T09:56:24.584Z,1000.6
2018-01-20T09:57:26.561Z,1000.6
2018-01-20T09:58:28.770Z,1000.7
2018-01-20T09:59:30.716Z,1000.6
2018-01-20T10:00:32.609Z,1000.6
2018-01-20T10:01:34.566Z,1000.6
2018-01-20T10:02:36.520Z,1000.6
2018-01-20T10:03:38.524Z,1000.6
2018-01-20T10:04:40.447Z,1000.6
2018-01-20T10:05:42.340Z,1000.6
2018-01-20T10:06:44.234Z,1000.6
2018-01-20T10:07:48.940Z,1000.6
2018-01-20T10:08:50.873Z,1000.5
2018-01-20T10:09:52.742Z,1000.5
2018-01-20T10:10:54.651Z,1000.4
2018-01-20T10:11:59.667Z,1000.4
2018-01-20T10:13:01.650Z,1000.3
2018-01-20T10:14:06.254Z,1000.2
2018-01-20T10:15:08.217Z,1000.2
2018-01-20T10:16:10.086Z,1000.2
2018-01-20T10:17:12.001Z,1000.1
2018-01-20T10:18:14.769Z,1000.1
2018-01-20T10:19:22.197Z,1000.0
2018-01-20T10:20:29.638Z,1000.1
2018-01-20T10:21:31.305Z,1000.0
2018-01-20T10:22:33.205Z,999.9
2018-01-20T10:23:35.720Z,1000.0
2018-01-20T10:24:37.692Z,999.9
2018-01-20T10:25:41.953Z,999.9
2018-01-20T10:26:43.845Z,999.9
2018-01-20T10:27:45.825Z,999.9
2018-01-20T10:28:52.032Z,999.9
2018-01-20T10:29:53.555Z,999.9
2018-01-20T10:30:55.526Z,999.9
2018-01-20T10:32:00.178Z,999.8
2018-01-20T10:33:02.135Z,999.8
2018-01-20T10:34:03.829Z,999.8
2018-01-20T10:35:06.132Z,999.8
2018-01-20T10:36:09.088Z,999.8
2018-01-20T10:37:11.508Z,999.8
2018-01-20T10:38:14.216Z,999.8
2018-01-20T10:39:16.218Z,999.8
2018-01-20T10:40:20.048Z,999.8
2018-01-20T10:41:23.262Z,999.9
2018-01-20T10:42:25.278Z,999.8
2018-01-20T10:43:28.039Z,999.7
2018-01-20T10:44:32.560Z,999.7
2018-01-20T10:45:34.849Z,999.7
2018-01-20T10:46:38.175Z,999.7
2018-01-20T10:47:40.104Z,999.7
2018-01-20T10:48:41.907Z,999.6
2018-01-20T10:49:44.028Z,999.7
2018-01-20T10:50:46.131Z,999.6
2018-01-20T10:51:50.799Z,999.6
2018-01-20T10:52:52.798Z,999.6
2018-01-20T10:53:55.041Z,999.5
2018-01-20T10:54:59.183Z,999.5
2018-01-20T10:56:01.066Z,999.5
2018-01-20T10:57:03.162Z,999.5
2018-01-20T10:58:05.203Z,999.4
2018-01-20T10:59:07.325Z,999.5
2018-01-20T11:00:10.074Z,999.5
2018-01-20T11:01:12.888Z,999.5
2018-01-20T11:02:14.985Z,999.5
2018-01-20T11:03:17.118Z,999.5
2018-01-20T11:04:20.739Z,999.4
2018-01-20T11:05:22.999Z,999.4
2018-01-20T11:06:24.914Z,999.4
2018-01-20T11:07:27.504Z,999.3
2018-01-20T11:08:29.661Z,999.4
2018-01-20T11:09:31.352Z,999.3
2018-01-20T11:10:33.730Z,999.3
2018-01-20T11:11:35.794Z,999.2
2018-01-20T11:12:39.934Z,999.2
2018-01-20T11:13:41.957Z,999.2
2018-01-20T11:14:44.018Z,999.1
2018-01-20T11:15:46.090Z,999.1
2018-01-20T11:16:48.661Z,999.0
2018-01-20T11:17:51.010Z,999.1
2018-01-20T11:18:58.628Z,999.0
2018-01-20T11:20:00.996Z,999.0
2018-01-20T11:21:03.117Z,998.9
2018-01-20T11:22:05.054Z,998.9
2018-01-20T11:23:15.614Z,998.8
2018-01-20T11:24:18.125Z,998.8
2018-01-20T11:25:19.535Z,998.8
2018-01-20T11:26:21.549Z,998.8
2018-01-20T11:27:23.987Z,998.8
2018-01-20T11:28:26.087Z,998.7
2018-01-20T11:29:28.031Z,998.7
2018-01-20T11:30:37.378Z,998.6
2018-01-20T11:31:39.100Z,998.6
2018-01-20T11:32:41.421Z,998.6
2018-01-20T11:33:43.355Z,998.6
2018-01-20T11:35:56.837Z,998.5
2018-01-20T11:37:02.056Z,998.5
2018-01-20T11:38:04.661Z,998.5
2018-01-20T11:39:07.258Z,998.5
2018-01-20T11:40:09.773Z,998.4
2018-01-20T11:41:12.809Z,998.4
2018-01-20T11:43:25.399Z,998.4
2018-01-20T11:44:27.009Z,998.4
2018-01-20T11:45:28.620Z,998.4
2018-01-20T11:46:30.240Z,998.4
2018-01-20T11:47:32.029Z,998.3
2018-01-20T11:48:33.679Z,998.4
2018-01-20T11:49:35.286Z,998.3
2018-01-20T11:50:36.917Z,998.3
2018-01-20T11:51:38.685Z,998.3
2018-01-20T11:52:40.370Z,998.2
2018-01-20T11:53:42.069Z,998.2
2018-01-20T11:54:43.836Z,998.1
2018-01-20T11:55:45.688Z,998.2
2018-01-20T11:56:47.432Z,998.1
2018-01-20T11:57:49.079Z,998.1
2018-01-20T11:58:50.925Z,998.1
2018-01-20T11:59:52.600Z,998.1
2018-01-20T12:00:54.417Z,998.0
2018-01-20T12:01:56.131Z,998.1
2018-01-20T12:02:57.863Z,998.0
2018-01-20T12:03:59.537Z,998.0
2018-01-20T12:05:01.614Z,998.0
2018-01-20T12:06:03.327Z,997.9
2018-01-20T12:07:04.994Z,997.9
2018-01-20T12:08:06.746Z,997.9
2018-01-20T12:09:08.733Z,997.8
2018-01-20T12:10:10.417Z,997.7
2018-01-20T12:11:12.499Z,997.7
2018-01-20T12:12:14.178Z,997.6
2018-01-20T12:13:15.836Z,997.7
2018-01-20T12:14:18.072Z,997.6
2018-01-20T12:15:19.822Z,997.6
2018-01-20T12:16:21.491Z,997.6
2018-01-20T12:17:23.635Z,997.6
2018-01-20T12:18:25.799Z,997.6
2018-01-20T12:19:29.887Z,997.5
2018-01-20T12:20:32.169Z,997.4
2018-01-20T12:21:34.564Z,997.4
2018-01-20T12:22:36.277Z,997.4
2018-01-20T12:23:38.579Z,997.4
2018-01-20T12:24:40.653Z,997.4
2018-01-20T12:25:43.453Z,997.3
2018-01-20T12:26:45.549Z,997.3
2018-01-20T12:27:47.697Z,997.3
2018-01-20T12:28:49.486Z,997.2
2018-01-20T12:29:51.160Z,997.2
2018-01-20T12:30:52.846Z,997.2
2018-01-20T12:31:54.523Z,997.2
2018-01-20T12:32:56.275Z,997.2
2018-01-20T12:33:57.952Z,997.2
2018-01-20T12:34:59.588Z,997.1
2018-01-20T12:36:01.526Z,997.1
2018-01-20T12:37:03.252Z,997.0
2018-01-20T12:38:05.064Z,997.0
2018-01-20T12:39:06.771Z,997.0
2018-01-20T12:40:08.508Z,997.0
2018-01-20T12:41:10.324Z,996.9
2018-01-20T12:42:11.986Z,996.9
2018-01-20T12:43:13.929Z,996.8
2018-01-20T12:44:15.601Z,996.8
2018-01-20T12:45:17.313Z,996.8
2018-01-20T12:46:19.031Z,996.8
2018-01-20T12:47:20.789Z,996.8
2018-01-20T12:48:22.615Z,996.8
2018-01-20T12:49:24.314Z,996.7
2018-01-20T12:50:26.348Z,996.7
2018-01-20T12:51:28.084Z,996.7
2018-01-20T12:52:29.875Z,996.7
2018-01-20T12:53:31.584Z,996.7
2018-01-20T12:54:33.768Z,996.7
2018-01-20T12:55:35.453Z,996.7
2018-01-20T12:56:37.688Z,996.6
2018-01-20T12:57:39.436Z,996.6
2018-01-20T12:58:41.162Z,996.6
2018-01-20T12:59:43.752Z,996.5
2018-01-20T13:00:46.185Z,996.5
2018-01-20T13:01:47.924Z,996.5
2018-01-20T13:02:49.798Z,996.5
2018-01-20T13:03:52.041Z,996.5
2018-01-20T13:04:53.749Z,996.4
2018-01-20T13:05:55.447Z,996.4
2018-01-20T13:06:57.152Z,996.3